Flight Track Log - Related Links

Times and Time Zones

All times are in EDT time to prevent confusion due to time zone crossing. See the UAL6855 flight status page for this flight to view local times or setup timezone preferences in your user account.

Time Position Orientation Groundspeed Altitude Reporting Facility
EDT Latitude Longitude Course Direction KTS MPH feet Rate Location/Type
Sat 07:21:47 PM 41.9833 -87.8333 88° East 201 231 3,700  Level Chicago TRACON
Sat 07:23:27 PM 41.9864 -87.7017 94° East 242 278 9,100 3,188 Climbing Chicago Center
Sat 07:24:27 PM 41.9803 -87.5733 94° East 288 331 12,200 2,950 Climbing Chicago Center
Sat 07:25:27 PM 41.9717 -87.4256 96° East 385 443 15,000 1,400 Climbing Chicago Center
Sat 07:26:27 PM 41.9606 -87.2750 96° East 397 457 15,000 1,450 Level Chicago Center
Sat 07:27:27 PM 41.9494 -87.1219 91° East 407 468 17,900 3,300 Climbing Chicago Center
Sat 07:28:27 PM 41.9464 -86.9628 88° East 412 474 21,600 3,350 Climbing Chicago Center
Sat 07:29:27 PM 41.9511 -86.7981 88° East 423 487 24,600 2,950 Climbing Chicago Center
Sat 07:30:27 PM 41.9553 -86.6247 90° East 442 509 27,500 2,650 Climbing Chicago Center
Sat 07:31:27 PM 41.9553 -86.4458 90° East 455 524 29,900 2,750 Climbing Chicago Center
Sat 07:32:27 PM 41.9542 -86.2450 102° East 476 548 33,000 2,750 Climbing Chicago Center
Sat 07:33:27 PM 41.9261 -86.0647 106° East 483 556 35,400 2,000 Climbing Chicago Center
Sat 07:34:27 PM 41.8897 -85.8908 105° East 483 556 37,000 800 Climbing Chicago Center
Sat 07:35:27 PM 41.8550 -85.7117 104° East 488 562 37,000  Level Chicago Center
Sat 07:36:27 PM 41.8197 -85.5269 106° East 488 562 37,000 600 Level Chicago Center
Sat 07:37:27 PM 41.7853 -85.3672 107° East 488 562 38,200 884 Climbing Chicago Center
Sat 07:38:36 PM 41.7353 -85.1528 106° East 502 578 38,900 372 Climbing Cleveland Center
Sat 07:39:36 PM 41.6931 -84.9522 102° East 510 587 39,000 50 Climbing Cleveland Center
Sat 07:40:36 PM 41.6625 -84.7667 95° East 505 581 39,000  Level Cleveland Center
Sat 07:41:36 PM 41.6506 -84.5769 92° East 510 587 39,000  Level Cleveland Center
Sat 07:42:36 PM 41.6447 -84.3819 94° East 510 587 39,000 -50 Level Cleveland Center
Sat 07:43:36 PM 41.6344 -84.1867 94° East 521 600 38,900  Descending Cleveland Center
Sat 07:44:36 PM 41.6233 -84.0000 114° Southeast 521 600 39,000 50 Climbing Cleveland Center
Sat 07:45:36 PM 41.5639 -83.8247 122° Southeast 512 589 39,000 -50 Level Cleveland Center
Sat 07:46:36 PM 41.4869 -83.6628 122° Southeast 505 581 38,900 -50 Descending Cleveland Center
Sat 07:47:36 PM 41.4100 -83.5014 122° Southeast 505 581 38,900 50 Level Cleveland Center
Sat 07:48:36 PM 41.3347 -83.3431 123° Southeast 510 587 39,000  Climbing Cleveland Center
Sat 07:49:36 PM 41.2569 -83.1822 124° Southeast 516 594 38,900  Descending Cleveland Center
Sat 07:50:36 PM 41.1872 -83.0469 122° Southeast 511 588 39,000 50 Climbing Cleveland Center
Sat 07:51:36 PM 41.1111 -82.8872 123° Southeast 511 588 39,000  Level Cleveland Center
Sat 07:53:59 PM 40.9194 -82.4942 124° Southeast 508 585 39,000  Level Indianapolis Center
Sat 07:54:36 PM 40.8781 -82.4119 124° Southeast 507 583 39,000  Level Cleveland Center
Sat 07:55:36 PM 40.7969 -82.2561 123° Southeast 512 589 39,000  Level Cleveland Center
Sat 07:56:36 PM 40.7178 -82.0981 123° Southeast 512 589 39,000  Level Cleveland Center
Sat 07:57:36 PM 40.6406 -81.9403 124° Southeast 517 595 39,000  Level Cleveland Center
Sat 07:58:36 PM 40.5611 -81.7828 124° Southeast 517 595 39,000  Level Cleveland Center
Sat 07:59:36 PM 40.4792 -81.6258 124° Southeast 517 595 39,000  Level Cleveland Center
Sat 08:00:36 PM 40.3931 -81.4556 124° Southeast 512 589 39,000  Level Cleveland Center
Sat 08:01:36 PM 40.3150 -81.3019 122° Southeast 512 589 39,000  Level Cleveland Center
Sat 08:02:36 PM 40.2389 -81.1406 120° Southeast 512 589 39,000  Level Cleveland Center
Sat 08:03:36 PM 40.1686 -80.9825 120° Southeast 512 589 39,000  Level Cleveland Center
Sat 08:04:36 PM 40.1044 -80.8383 122° Southeast 507 583 39,000  Level Cleveland Center
Sat 08:05:36 PM 40.0297 -80.6806 120° Southeast 512 589 39,000  Level Cleveland Center
Sat 08:06:36 PM 39.9589 -80.5208 122° Southeast 517 595 39,000  Level Cleveland Center
Sat 08:07:36 PM 39.8836 -80.3639 121° Southeast 517 595 39,000 -1,663 Level Cleveland Center
Sat 08:09:22 PM 39.7469 -80.0744 122° Southeast 497 572 34,400 -2,675 Descending Washington Center
Sat 08:10:22 PM 39.6717 -79.9158 121° Southeast 502 578 31,600 -2,500 Descending Washington Center
Sat 08:11:22 PM 39.5981 -79.7581 116° Southeast 509 586 29,400 -2,182 Descending Washington Center
Sat 08:12:23 PM 39.5367 -79.5983 110° East 509 586 27,200 -2,118 Descending Washington Center
Sat 08:13:21 PM 39.4881 -79.4289 110° East 497 572 25,200 -1,109 Descending Washington Center
Sat 08:14:22 PM 39.4431 -79.2681 114° Southeast 491 565 25,000 -744 Descending Washington Center
Sat 08:15:22 PM 39.3931 -79.1231 111° Southeast 486 559 23,700 -1,587 Descending Washington Center
Sat 08:16:23 PM 39.3456 -78.9650 112° Southeast 480 552 21,800 -1,950 Descending Washington Center
Sat 08:17:22 PM 39.2975 -78.8128 110° East 467 537 19,800 -2,017 Descending Washington Center
Sat 08:18:22 PM 39.2556 -78.6661 112° Southeast 454 522 17,800 -2,579 Descending Washington Center
Sat 08:19:23 PM 39.2111 -78.5250 112° Southeast 434 499 14,600 -3,227 Descending Washington Center
Sat 08:20:21 PM 39.1706 -78.3947 103° East 413 475 11,400 -1,966 Descending Washington Center
Sat 08:21:22 PM 39.1483 -78.2733 110° East 376 433 10,700 -1,000 Descending Washington Center
Sat 08:22:21 PM 39.1153 -78.1572 113° Southeast 351 404 9,400 -1,250 Descending Washington Center
Sat 08:23:22 PM 39.0800 -78.0489 111° Southeast 337 388 8,200 -1,230 Descending Washington Center
Sat 08:24:23 PM 39.0489 -77.9464 111° Southeast 317 365 6,900 -1,091 Descending Washington Center
Sat 08:25:23 PM 39.0156 -77.8358 111° Southeast 306 352 6,000 -458 Descending Washington Center
Sat 08:26:21 PM 38.9858 -77.7386 113° Southeast 295 339 6,000  Level Washington Center
Sat 08:27:22 PM 38.9522 -77.6389 129° Southeast 295 339 6,000  Level Washington Center
Sat 08:27:59 PM 38.9167 -77.5833 180° South 298 343 6,000  Level Potomac TRACON
Sat 08:28:54 PM 38.8667 -77.5833 180° South 230 265 6,000 -522 Level Potomac TRACON
Sat 08:29:54 PM 38.8000 -77.5833 180° South 215 247 5,000 -500 Descending Potomac TRACON
Sat 08:30:54 PM 38.7500 -77.5833 153° Southeast 191 220 5,000 -429 Level Potomac TRACON
Sat 08:32:00 PM 38.7000 -77.5500 72° East 199 229 4,100 -500 Descending Potomac TRACON
Sat 08:32:54 PM 38.7167 -77.4833 15° North 212 244 4,000 -53 Descending Potomac TRACON
Sat 08:33:54 PM 38.7667 -77.4667 360° North 210 242 4,000 -545 Level Potomac TRACON
Sat 08:34:55 PM 38.8167 -77.4667 360° North 198 228 2,900 -1,140 Descending Potomac TRACON
Sat 08:35:55 PM 38.8667 -77.4667 360° North 147 169 1,700 -952 Descending Potomac TRACON
Sat 08:37:01 PM 38.9000 -77.4667 360° North 132 152 900 -727 Descending Potomac TRACON

Login

Don't have an account? Register now (free) for customized features, flight alerts, and more!